Kittery, ME

10:55 PM EST on February 09, 2016 (GMT -0500)
KPV | | Change Station
CLOSE
Current Station
Personal Weather Station
Location: Kittery Point, ME
Elevation: 40 ft
Nearby Weather Stations
Active Advisory: Coastal Flood Statement Active Notice: Local Storm Report

Elev 40 ft 43.08 °N, 70.71 °W | Updated 12 seconds ago

Clear
Clear
20.1 °F
Feels Like 20 °F
N
0.0
Wind Variable Wind from North
Gusts 0.0 mph

Today
High -- | Low -- °F
--% Chance of Precip.
Yesterday
High -- | Low -- °F
Precip. -- in
Pressure 29.63 in
Visibility 10.0 miles
Clouds Few 3500 ft
Windchill 20 °F
Dew Point 16 °F
Humidity 84%
Rainfall Not available.
Snow Depth Not available.
6:49 AM 5:05 PM
Waxing Crescent, 3% visible
METAR KPSM 100258Z 30002KT 10SM FEW035 M07/M10 A2961 RMK AO2A SLP032 T10671103 53001
Pressure 29.63 in
Visibility 10.0 miles
Clouds Few 3500 ft
Windchill 20 °F
Dew Point 16 °F
Humidity 84%
Rainfall Not available.
Snow Depth Not available.
6:49 AM 5:05 PM
Waxing Crescent, 3% visible
METAR KPSM 100258Z 30002KT 10SM FEW035 M07/M10 A2961 RMK AO2A SLP032 T10671103 53001

10-Day Weather Forecast

Almanac

Astronomy

Feb. 09, 2016 Rise Set
Actual Time
Civil Twilight
Nautical Twilight
Astronomical Twilight
Moon
Length of Visible Light
Length of Day
Tomorrow will be .
, % of the Moon is Illuminated

Today's Extremes

State Highs State Lows

Community

WunderPhotos

Upload Photos

1,891,792 photos uploaded!

WunderBlog® & News

Nearby

Air Quality

  Air Quality AQ Index Pollutant
Not available.

Snow Depth

Station Depth Elevation

Earthquake Activity

City Distance Mag. Time & Date
Minimum magnitude displayed is 2.5.

Coastal Water Temperatures

Place Temperature

Stations

Nearby Weather Stations

Station Location Temp. Windchill Dew Point Humidity Wind Precip. Elev Updated Type
                   

Watches & Warnings

Coastal Flood Statement
Issued: 2:52 PM EST Feb. 9, 2016 – National Weather Service

* location... exposed beaches in coastal York and coastal
Rockingham County.

* Impact... some splash-over possible near the time of high tide.

* Timing... late this evening.